sensor_id;sensor_type;location;lat;lon;timestamp;P1;durP1;ratioP1;P2;durP2;ratioP2
315;SDS011;14128;48.686;9.738;2022-09-28T00:01:26;5.30;;;5.00;;
315;SDS011;14128;48.686;9.738;2022-09-28T00:03:55;7.23;;;6.83;;
315;SDS011;14128;48.686;9.738;2022-09-28T00:06:24;7.60;;;7.20;;
315;SDS011;14128;48.686;9.738;2022-09-28T00:08:51;8.60;;;8.10;;
315;SDS011;14128;48.686;9.738;2022-09-28T00:11:19;8.00;;;7.60;;
315;SDS011;14128;48.686;9.738;2022-09-28T00:13:48;10.90;;;7.73;;
315;SDS011;14128;48.686;9.738;2022-09-28T00:16:16;11.80;;;9.90;;
315;SDS011;14128;48.686;9.738;2022-09-28T00:18:45;5.30;;;4.00;;
315;SDS011;14128;48.686;9.738;2022-09-28T00:21:16;4.70;;;2.83;;
315;SDS011;14128;48.686;9.738;2022-09-28T00:23:45;3.03;;;2.17;;
315;SDS011;14128;48.686;9.738;2022-09-28T00:26:31;2.40;;;1.87;;
315;SDS011;14128;48.686;9.738;2022-09-28T00:28:59;3.93;;;2.67;;
315;SDS011;14128;48.686;9.738;2022-09-28T00:31:28;6.93;;;4.70;;
315;SDS011;14128;48.686;9.738;2022-09-28T00:33:56;7.20;;;6.27;;
315;SDS011;14128;48.686;9.738;2022-09-28T00:36:26;9.13;;;8.63;;
315;SDS011;14128;48.686;9.738;2022-09-28T00:38:54;8.43;;;7.97;;
315;SDS011;14128;48.686;9.738;2022-09-28T00:41:22;10.97;;;10.37;;
315;SDS011;14128;48.686;9.738;2022-09-28T00:43:49;5.50;;;5.20;;
315;SDS011;14128;48.686;9.738;2022-09-28T00:46:17;5.00;;;4.17;;
315;SDS011;14128;48.686;9.738;2022-09-28T00:48:48;5.77;;;5.47;;
315;SDS011;14128;48.686;9.738;2022-09-28T00:51:20;5.43;;;5.13;;
315;SDS011;14128;48.686;9.738;2022-09-28T00:53:50;5.03;;;4.73;;
315;SDS011;14128;48.686;9.738;2022-09-28T00:56:20;4.37;;;4.07;;
315;SDS011;14128;48.686;9.738;2022-09-28T00:58:50;3.50;;;3.30;;
315;SDS011;14128;48.686;9.738;2022-09-28T01:01:18;3.07;;;2.87;;
315;SDS011;14128;48.686;9.738;2022-09-28T01:03:46;3.40;;;3.20;;
315;SDS011;14128;48.686;9.738;2022-09-28T01:06:14;2.07;;;1.93;;
315;SDS011;14128;48.686;9.738;2022-09-28T01:08:44;2.53;;;2.37;;
315;SDS011;14128;48.686;9.738;2022-09-28T01:11:15;1.90;;;1.63;;
315;SDS011;14128;48.686;9.738;2022-09-28T01:13:42;3.77;;;1.43;;
315;SDS011;14128;48.686;9.738;2022-09-28T01:16:12;1.93;;;1.50;;
315;SDS011;14128;48.686;9.738;2022-09-28T01:18:46;2.30;;;1.30;;
315;SDS011;14128;48.686;9.738;2022-09-28T01:21:24;1.50;;;1.40;;
315;SDS011;14128;48.686;9.738;2022-09-28T01:26:49;2.50;;;2.23;;
315;SDS011;14128;48.686;9.738;2022-09-28T01:29:30;4.73;;;2.53;;
315;SDS011;14128;48.686;9.738;2022-09-28T01:34:59;2.20;;;1.83;;
315;SDS011;14128;48.686;9.738;2022-09-28T01:37:32;3.37;;;1.90;;
315;SDS011;14128;48.686;9.738;2022-09-28T01:40:05;3.33;;;1.50;;
315;SDS011;14128;48.686;9.738;2022-09-28T01:42:36;2.20;;;0.97;;
315;SDS011;14128;48.686;9.738;2022-09-28T01:45:06;1.23;;;1.00;;
315;SDS011;14128;48.686;9.738;2022-09-28T01:47:37;2.03;;;1.60;;
315;SDS011;14128;48.686;9.738;2022-09-28T01:50:06;2.70;;;1.03;;
315;SDS011;14128;48.686;9.738;2022-09-28T01:52:37;4.70;;;1.10;;
315;SDS011;14128;48.686;9.738;2022-09-28T01:55:10;3.83;;;1.50;;
315;SDS011;14128;48.686;9.738;2022-09-28T01:57:44;3.23;;;1.17;;
315;SDS011;14128;48.686;9.738;2022-09-28T02:00:16;3.80;;;1.57;;
315;SDS011;14128;48.686;9.738;2022-09-28T02:02:46;10.13;;;1.20;;
315;SDS011;14128;48.686;9.738;2022-09-28T02:05:19;4.87;;;1.10;;
315;SDS011;14128;48.686;9.738;2022-09-28T02:07:50;1.77;;;1.20;;
315;SDS011;14128;48.686;9.738;2022-09-28T02:10:23;6.30;;;1.83;;
315;SDS011;14128;48.686;9.738;2022-09-28T02:12:56;2.63;;;0.90;;
315;SDS011;14128;48.686;9.738;2022-09-28T02:15:27;4.10;;;1.13;;
315;SDS011;14128;48.686;9.738;2022-09-28T02:17:58;2.80;;;1.20;;
315;SDS011;14128;48.686;9.738;2022-09-28T02:20:25;1.67;;;1.00;;
315;SDS011;14128;48.686;9.738;2022-09-28T02:22:55;1.80;;;1.40;;
315;SDS011;14128;48.686;9.738;2022-09-28T02:25:27;3.87;;;1.07;;
315;SDS011;14128;48.686;9.738;2022-09-28T02:28:01;2.57;;;1.10;;
315;SDS011;14128;48.686;9.738;2022-09-28T02:30:31;2.83;;;1.23;;
315;SDS011;14128;48.686;9.738;2022-09-28T02:33:00;2.37;;;1.40;;
315;SDS011;14128;48.686;9.738;2022-09-28T02:35:30;2.93;;;1.10;;
315;SDS011;14128;48.686;9.738;2022-09-28T02:37:58;1.90;;;0.87;;
315;SDS011;14128;48.686;9.738;2022-09-28T02:40:27;1.20;;;1.03;;
315;SDS011;14128;48.686;9.738;2022-09-28T02:42:58;2.57;;;1.13;;
315;SDS011;14128;48.686;9.738;2022-09-28T02:45:39;1.97;;;1.03;;
315;SDS011;14128;48.686;9.738;2022-09-28T02:48:26;3.40;;;1.20;;
315;SDS011;14128;48.686;9.738;2022-09-28T02:51:02;0.83;;;0.60;;
315;SDS011;14128;48.686;9.738;2022-09-28T02:53:44;2.70;;;1.20;;
315;SDS011;14128;48.686;9.738;2022-09-28T02:56:32;1.27;;;0.53;;
315;SDS011;14128;48.686;9.738;2022-09-28T02:59:16;1.83;;;0.70;;
315;SDS011;14128;48.686;9.738;2022-09-28T03:01:55;1.57;;;0.80;;
315;SDS011;14128;48.686;9.738;2022-09-28T03:04:29;3.50;;;1.00;;
315;SDS011;14128;48.686;9.738;2022-09-28T03:07:04;3.50;;;0.77;;
315;SDS011;14128;48.686;9.738;2022-09-28T03:09:36;1.63;;;0.87;;
315;SDS011;14128;48.686;9.738;2022-09-28T03:12:08;3.20;;;1.27;;
315;SDS011;14128;48.686;9.738;2022-09-28T03:14:39;5.80;;;1.07;;
315;SDS011;14128;48.686;9.738;2022-09-28T03:17:06;1.63;;;0.77;;
315;SDS011;14128;48.686;9.738;2022-09-28T03:19:33;2.20;;;0.90;;
315;SDS011;14128;48.686;9.738;2022-09-28T03:22:00;3.73;;;1.00;;
315;SDS011;14128;48.686;9.738;2022-09-28T03:24:27;2.90;;;1.10;;
315;SDS011;14128;48.686;9.738;2022-09-28T03:26:54;1.13;;;0.50;;
315;SDS011;14128;48.686;9.738;2022-09-28T03:29:21;2.27;;;0.90;;
315;SDS011;14128;48.686;9.738;2022-09-28T03:31:49;0.90;;;0.50;;
315;SDS011;14128;48.686;9.738;2022-09-28T03:34:16;2.57;;;0.90;;
315;SDS011;14128;48.686;9.738;2022-09-28T03:36:42;4.93;;;1.17;;
315;SDS011;14128;48.686;9.738;2022-09-28T03:39:09;2.67;;;1.00;;
315;SDS011;14128;48.686;9.738;2022-09-28T03:41:36;2.10;;;1.00;;
315;SDS011;14128;48.686;9.738;2022-09-28T03:44:03;3.23;;;1.30;;
315;SDS011;14128;48.686;9.738;2022-09-28T03:46:30;0.70;;;0.40;;
315;SDS011;14128;48.686;9.738;2022-09-28T03:48:58;2.03;;;0.70;;
315;SDS011;14128;48.686;9.738;2022-09-28T03:51:24;2.20;;;0.57;;
315;SDS011;14128;48.686;9.738;2022-09-28T03:53:51;2.63;;;1.23;;
315;SDS011;14128;48.686;9.738;2022-09-28T03:56:18;3.53;;;0.50;;
315;SDS011;14128;48.686;9.738;2022-09-28T03:58:45;1.70;;;0.70;;
315;SDS011;14128;48.686;9.738;2022-09-28T04:01:12;4.23;;;1.63;;
315;SDS011;14128;48.686;9.738;2022-09-28T04:03:40;5.93;;;1.90;;
315;SDS011;14128;48.686;9.738;2022-09-28T04:06:09;2.37;;;0.73;;
315;SDS011;14128;48.686;9.738;2022-09-28T04:08:36;1.27;;;0.80;;
315;SDS011;14128;48.686;9.738;2022-09-28T04:11:03;1.77;;;0.53;;
315;SDS011;14128;48.686;9.738;2022-09-28T04:13:30;1.93;;;0.67;;
315;SDS011;14128;48.686;9.738;2022-09-28T04:15:58;3.33;;;0.90;;
315;SDS011;14128;48.686;9.738;2022-09-28T04:18:26;3.40;;;0.40;;
315;SDS011;14128;48.686;9.738;2022-09-28T04:20:59;2.40;;;0.93;;
315;SDS011;14128;48.686;9.738;2022-09-28T04:23:32;2.17;;;2.03;;
315;SDS011;14128;48.686;9.738;2022-09-28T04:26:00;4.30;;;0.70;;
315;SDS011;14128;48.686;9.738;2022-09-28T04:28:27;4.33;;;0.67;;
315;SDS011;14128;48.686;9.738;2022-09-28T04:31:12;1.63;;;0.80;;
315;SDS011;14128;48.686;9.738;2022-09-28T04:33:43;0.60;;;0.50;;
315;SDS011;14128;48.686;9.738;2022-09-28T04:36:09;1.67;;;0.63;;
315;SDS011;14128;48.686;9.738;2022-09-28T04:38:38;1.30;;;1.10;;
315;SDS011;14128;48.686;9.738;2022-09-28T04:41:05;1.67;;;1.40;;
315;SDS011;14128;48.686;9.738;2022-09-28T04:43:32;0.97;;;0.60;;
315;SDS011;14128;48.686;9.738;2022-09-28T04:45:59;0.80;;;0.50;;
315;SDS011;14128;48.686;9.738;2022-09-28T04:48:27;3.03;;;0.80;;
315;SDS011;14128;48.686;9.738;2022-09-28T04:50:54;1.07;;;0.70;;
315;SDS011;14128;48.686;9.738;2022-09-28T04:53:22;2.10;;;0.87;;
315;SDS011;14128;48.686;9.738;2022-09-28T04:55:55;1.37;;;0.90;;
315;SDS011;14128;48.686;9.738;2022-09-28T04:58:23;2.90;;;1.20;;
315;SDS011;14128;48.686;9.738;2022-09-28T05:00:50;2.47;;;1.40;;
315;SDS011;14128;48.686;9.738;2022-09-28T05:03:17;1.27;;;0.97;;
315;SDS011;14128;48.686;9.738;2022-09-28T05:05:45;2.13;;;1.20;;
315;SDS011;14128;48.686;9.738;2022-09-28T05:08:13;4.93;;;1.10;;
315;SDS011;14128;48.686;9.738;2022-09-28T05:10:40;0.90;;;0.47;;
315;SDS011;14128;48.686;9.738;2022-09-28T05:13:08;1.47;;;0.73;;
315;SDS011;14128;48.686;9.738;2022-09-28T05:15:37;4.17;;;0.97;;
315;SDS011;14128;48.686;9.738;2022-09-28T05:18:05;2.37;;;0.90;;
315;SDS011;14128;48.686;9.738;2022-09-28T05:20:33;3.17;;;0.90;;
315;SDS011;14128;48.686;9.738;2022-09-28T05:23:05;2.87;;;1.40;;
315;SDS011;14128;48.686;9.738;2022-09-28T05:25:33;2.10;;;0.90;;
315;SDS011;14128;48.686;9.738;2022-09-28T05:28:00;7.40;;;1.97;;
315;SDS011;14128;48.686;9.738;2022-09-28T05:30:28;2.77;;;2.00;;
315;SDS011;14128;48.686;9.738;2022-09-28T05:32:55;2.77;;;2.20;;
315;SDS011;14128;48.686;9.738;2022-09-28T05:35:22;4.83;;;2.80;;
315;SDS011;14128;48.686;9.738;2022-09-28T05:40:24;5.70;;;2.37;;
315;SDS011;14128;48.686;9.738;2022-09-28T05:42:51;5.10;;;2.00;;
315;SDS011;14128;48.686;9.738;2022-09-28T05:45:18;4.40;;;1.73;;
315;SDS011;14128;48.686;9.738;2022-09-28T05:47:49;3.53;;;1.60;;
315;SDS011;14128;48.686;9.738;2022-09-28T05:50:16;3.40;;;1.50;;
315;SDS011;14128;48.686;9.738;2022-09-28T05:52:43;1.73;;;1.50;;
315;SDS011;14128;48.686;9.738;2022-09-28T05:55:10;5.10;;;2.07;;
315;SDS011;14128;48.686;9.738;2022-09-28T05:57:38;1.60;;;1.30;;
315;SDS011;14128;48.686;9.738;2022-09-28T06:00:05;4.10;;;1.90;;
315;SDS011;14128;48.686;9.738;2022-09-28T06:02:33;2.80;;;1.10;;
315;SDS011;14128;48.686;9.738;2022-09-28T06:05:02;4.80;;;1.63;;
315;SDS011;14128;48.686;9.738;2022-09-28T06:07:29;1.70;;;1.50;;
315;SDS011;14128;48.686;9.738;2022-09-28T06:09:56;3.60;;;2.20;;
315;SDS011;14128;48.686;9.738;2022-09-28T06:12:23;3.20;;;1.90;;
315;SDS011;14128;48.686;9.738;2022-09-28T06:14:51;1.80;;;1.30;;
315;SDS011;14128;48.686;9.738;2022-09-28T06:17:18;4.10;;;1.50;;
315;SDS011;14128;48.686;9.738;2022-09-28T06:19:44;4.70;;;1.80;;
315;SDS011;14128;48.686;9.738;2022-09-28T06:22:12;3.10;;;1.43;;
315;SDS011;14128;48.686;9.738;2022-09-28T06:24:39;1.20;;;0.77;;
315;SDS011;14128;48.686;9.738;2022-09-28T06:27:06;4.20;;;2.23;;
315;SDS011;14128;48.686;9.738;2022-09-28T06:29:33;3.50;;;1.70;;
315;SDS011;14128;48.686;9.738;2022-09-28T06:32:00;5.10;;;1.73;;
315;SDS011;14128;48.686;9.738;2022-09-28T06:34:27;3.90;;;2.00;;
315;SDS011;14128;48.686;9.738;2022-09-28T06:36:54;1.57;;;1.40;;
315;SDS011;14128;48.686;9.738;2022-09-28T06:39:22;4.40;;;2.33;;
315;SDS011;14128;48.686;9.738;2022-09-28T06:41:49;2.97;;;2.60;;
315;SDS011;14128;48.686;9.738;2022-09-28T06:44:16;3.27;;;1.90;;
315;SDS011;14128;48.686;9.738;2022-09-28T06:46:43;4.17;;;2.27;;
315;SDS011;14128;48.686;9.738;2022-09-28T06:49:10;3.67;;;3.50;;
315;SDS011;14128;48.686;9.738;2022-09-28T06:51:37;4.17;;;3.33;;
315;SDS011;14128;48.686;9.738;2022-09-28T06:54:03;2.73;;;2.23;;
315;SDS011;14128;48.686;9.738;2022-09-28T06:56:32;2.70;;;1.97;;
315;SDS011;14128;48.686;9.738;2022-09-28T06:58:58;3.30;;;2.60;;
315;SDS011;14128;48.686;9.738;2022-09-28T07:01:25;4.03;;;2.90;;
315;SDS011;14128;48.686;9.738;2022-09-28T07:03:52;3.33;;;2.67;;
315;SDS011;14128;48.686;9.738;2022-09-28T07:06:19;12.67;;;8.53;;
315;SDS011;14128;48.686;9.738;2022-09-28T07:08:48;15.97;;;10.20;;
315;SDS011;14128;48.686;9.738;2022-09-28T07:11:15;9.60;;;6.57;;
315;SDS011;14128;48.686;9.738;2022-09-28T07:13:45;8.10;;;6.00;;
315;SDS011;14128;48.686;9.738;2022-09-28T07:16:12;6.60;;;4.70;;
315;SDS011;14128;48.686;9.738;2022-09-28T07:18:39;4.67;;;4.20;;
315;SDS011;14128;48.686;9.738;2022-09-28T07:21:06;6.53;;;5.20;;
315;SDS011;14128;48.686;9.738;2022-09-28T07:23:33;7.00;;;3.20;;
315;SDS011;14128;48.686;9.738;2022-09-28T07:26:01;6.73;;;3.83;;
315;SDS011;14128;48.686;9.738;2022-09-28T07:28:30;5.10;;;4.27;;
315;SDS011;14128;48.686;9.738;2022-09-28T07:30:59;5.10;;;3.50;;
315;SDS011;14128;48.686;9.738;2022-09-28T07:33:27;3.93;;;3.23;;
315;SDS011;14128;48.686;9.738;2022-09-28T07:35:56;9.10;;;3.27;;
315;SDS011;14128;48.686;9.738;2022-09-28T07:38:24;5.60;;;3.33;;
315;SDS011;14128;48.686;9.738;2022-09-28T07:40:51;7.90;;;3.30;;
315;SDS011;14128;48.686;9.738;2022-09-28T07:43:35;8.23;;;3.50;;
315;SDS011;14128;48.686;9.738;2022-09-28T07:46:05;5.33;;;3.40;;
315;SDS011;14128;48.686;9.738;2022-09-28T07:48:36;6.80;;;3.10;;
315;SDS011;14128;48.686;9.738;2022-09-28T07:51:05;6.40;;;4.30;;
315;SDS011;14128;48.686;9.738;2022-09-28T07:53:33;4.60;;;3.70;;
315;SDS011;14128;48.686;9.738;2022-09-28T07:56:01;4.70;;;3.77;;
315;SDS011;14128;48.686;9.738;2022-09-28T07:58:30;4.20;;;3.60;;
315;SDS011;14128;48.686;9.738;2022-09-28T08:00:57;5.57;;;4.23;;
315;SDS011;14128;48.686;9.738;2022-09-28T08:03:29;4.77;;;4.50;;
315;SDS011;14128;48.686;9.738;2022-09-28T08:05:56;8.07;;;4.70;;
315;SDS011;14128;48.686;9.738;2022-09-28T08:08:24;7.93;;;4.77;;
315;SDS011;14128;48.686;9.738;2022-09-28T08:10:51;5.70;;;4.70;;
315;SDS011;14128;48.686;9.738;2022-09-28T08:13:18;7.53;;;5.53;;
315;SDS011;14128;48.686;9.738;2022-09-28T08:15:45;8.93;;;5.73;;
315;SDS011;14128;48.686;9.738;2022-09-28T08:18:15;8.93;;;5.80;;
315;SDS011;14128;48.686;9.738;2022-09-28T08:20:43;12.17;;;7.00;;
315;SDS011;14128;48.686;9.738;2022-09-28T08:23:27;9.63;;;5.80;;
315;SDS011;14128;48.686;9.738;2022-09-28T08:25:54;7.87;;;5.47;;
315;SDS011;14128;48.686;9.738;2022-09-28T08:28:22;18.13;;;5.47;;
315;SDS011;14128;48.686;9.738;2022-09-28T08:30:49;10.63;;;6.47;;
315;SDS011;14128;48.686;9.738;2022-09-28T08:33:17;7.97;;;3.90;;
315;SDS011;14128;48.686;9.738;2022-09-28T08:35:46;8.23;;;4.40;;
315;SDS011;14128;48.686;9.738;2022-09-28T08:38:21;5.20;;;3.33;;
315;SDS011;14128;48.686;9.738;2022-09-28T08:40:50;4.20;;;2.40;;
315;SDS011;14128;48.686;9.738;2022-09-28T08:43:26;3.10;;;2.90;;
315;SDS011;14128;48.686;9.738;2022-09-28T08:46:10;6.63;;;3.10;;
315;SDS011;14128;48.686;9.738;2022-09-28T08:48:44;4.40;;;3.70;;
315;SDS011;14128;48.686;9.738;2022-09-28T08:51:20;4.60;;;2.60;;
315;SDS011;14128;48.686;9.738;2022-09-28T08:53:52;4.30;;;2.90;;
315;SDS011;14128;48.686;9.738;2022-09-28T08:56:36;8.10;;;3.10;;
315;SDS011;14128;48.686;9.738;2022-09-28T08:59:08;5.90;;;3.60;;
315;SDS011;14128;48.686;9.738;2022-09-28T09:01:41;4.67;;;3.97;;
315;SDS011;14128;48.686;9.738;2022-09-28T09:04:13;6.40;;;4.50;;
315;SDS011;14128;48.686;9.738;2022-09-28T09:09:37;7.07;;;4.00;;
315;SDS011;14128;48.686;9.738;2022-09-28T09:12:14;8.73;;;3.00;;
315;SDS011;14128;48.686;9.738;2022-09-28T09:17:45;3.10;;;1.97;;
315;SDS011;14128;48.686;9.738;2022-09-28T09:20:24;4.93;;;2.27;;
315;SDS011;14128;48.686;9.738;2022-09-28T09:23:04;4.97;;;2.30;;
315;SDS011;14128;48.686;9.738;2022-09-28T09:25:40;3.77;;;2.50;;
315;SDS011;14128;48.686;9.738;2022-09-28T09:28:33;5.73;;;2.80;;
315;SDS011;14128;48.686;9.738;2022-09-28T09:31:32;6.30;;;2.90;;
315;SDS011;14128;48.686;9.738;2022-09-28T09:34:15;5.10;;;3.30;;
315;SDS011;14128;48.686;9.738;2022-09-28T09:36:59;4.33;;;3.00;;
315;SDS011;14128;48.686;9.738;2022-09-28T09:39:50;4.13;;;2.27;;
315;SDS011;14128;48.686;9.738;2022-09-28T09:42:32;4.10;;;2.77;;
315;SDS011;14128;48.686;9.738;2022-09-28T09:45:14;8.03;;;3.10;;
315;SDS011;14128;48.686;9.738;2022-09-28T09:47:53;5.70;;;2.60;;
315;SDS011;14128;48.686;9.738;2022-09-28T09:50:24;6.50;;;3.03;;
315;SDS011;14128;48.686;9.738;2022-09-28T09:52:57;4.83;;;3.30;;
315;SDS011;14128;48.686;9.738;2022-09-28T09:55:30;4.57;;;3.40;;
315;SDS011;14128;48.686;9.738;2022-09-28T09:58:05;4.77;;;2.93;;
315;SDS011;14128;48.686;9.738;2022-09-28T10:00:38;3.37;;;3.17;;
315;SDS011;14128;48.686;9.738;2022-09-28T10:03:10;2.73;;;2.57;;
315;SDS011;14128;48.686;9.738;2022-09-28T10:05:45;4.67;;;4.10;;
315;SDS011;14128;48.686;9.738;2022-09-28T10:08:19;6.17;;;2.90;;
315;SDS011;14128;48.686;9.738;2022-09-28T10:10:50;4.00;;;2.37;;
315;SDS011;14128;48.686;9.738;2022-09-28T10:13:19;2.73;;;2.30;;
315;SDS011;14128;48.686;9.738;2022-09-28T10:15:47;4.10;;;2.50;;
315;SDS011;14128;48.686;9.738;2022-09-28T10:18:15;5.90;;;3.83;;
315;SDS011;14128;48.686;9.738;2022-09-28T10:20:45;5.27;;;2.30;;
315;SDS011;14128;48.686;9.738;2022-09-28T10:23:14;4.53;;;2.60;;
315;SDS011;14128;48.686;9.738;2022-09-28T10:25:46;3.93;;;3.10;;
315;SDS011;14128;48.686;9.738;2022-09-28T10:28:20;5.60;;;2.67;;
315;SDS011;14128;48.686;9.738;2022-09-28T10:30:52;2.80;;;2.53;;
315;SDS011;14128;48.686;9.738;2022-09-28T10:33:26;9.57;;;3.40;;
315;SDS011;14128;48.686;9.738;2022-09-28T10:35:54;2.87;;;2.00;;
315;SDS011;14128;48.686;9.738;2022-09-28T10:38:22;1.80;;;1.50;;
315;SDS011;14128;48.686;9.738;2022-09-28T10:40:49;5.03;;;1.73;;
315;SDS011;14128;48.686;9.738;2022-09-28T10:43:20;2.60;;;1.70;;
315;SDS011;14128;48.686;9.738;2022-09-28T10:45:58;5.30;;;2.30;;
315;SDS011;14128;48.686;9.738;2022-09-28T10:48:26;6.83;;;2.50;;
315;SDS011;14128;48.686;9.738;2022-09-28T10:50:56;2.00;;;1.47;;
315;SDS011;14128;48.686;9.738;2022-09-28T10:53:25;2.97;;;1.70;;
315;SDS011;14128;48.686;9.738;2022-09-28T10:56:00;3.40;;;1.83;;
315;SDS011;14128;48.686;9.738;2022-09-28T10:58:31;2.43;;;1.87;;
315;SDS011;14128;48.686;9.738;2022-09-28T11:01:04;3.27;;;2.10;;
315;SDS011;14128;48.686;9.738;2022-09-28T11:03:37;3.70;;;1.80;;
315;SDS011;14128;48.686;9.738;2022-09-28T11:06:14;2.50;;;1.20;;
315;SDS011;14128;48.686;9.738;2022-09-28T11:08:48;4.27;;;1.60;;
315;SDS011;14128;48.686;9.738;2022-09-28T11:11:16;2.43;;;1.73;;
315;SDS011;14128;48.686;9.738;2022-09-28T11:13:45;3.73;;;2.10;;
315;SDS011;14128;48.686;9.738;2022-09-28T11:16:18;3.10;;;1.60;;
315;SDS011;14128;48.686;9.738;2022-09-28T11:18:47;2.10;;;1.60;;
315;SDS011;14128;48.686;9.738;2022-09-28T11:21:15;4.73;;;1.43;;
315;SDS011;14128;48.686;9.738;2022-09-28T11:23:53;2.37;;;1.57;;
315;SDS011;14128;48.686;9.738;2022-09-28T11:26:23;2.37;;;1.53;;
315;SDS011;14128;48.686;9.738;2022-09-28T11:28:50;2.43;;;1.63;;
315;SDS011;14128;48.686;9.738;2022-09-28T11:31:23;3.60;;;1.80;;
315;SDS011;14128;48.686;9.738;2022-09-28T11:33:59;2.60;;;2.30;;
315;SDS011;14128;48.686;9.738;2022-09-28T11:36:48;2.37;;;2.20;;
315;SDS011;14128;48.686;9.738;2022-09-28T11:39:26;4.00;;;2.13;;
315;SDS011;14128;48.686;9.738;2022-09-28T11:42:03;2.83;;;2.20;;
315;SDS011;14128;48.686;9.738;2022-09-28T11:44:41;2.70;;;2.50;;
315;SDS011;14128;48.686;9.738;2022-09-28T11:47:21;2.80;;;2.43;;
315;SDS011;14128;48.686;9.738;2022-09-28T11:50:13;5.50;;;2.30;;
315;SDS011;14128;48.686;9.738;2022-09-28T11:52:47;4.27;;;2.60;;
315;SDS011;14128;48.686;9.738;2022-09-28T11:55:21;6.07;;;2.73;;
315;SDS011;14128;48.686;9.738;2022-09-28T11:57:59;1.90;;;1.60;;
315;SDS011;14128;48.686;9.738;2022-09-28T12:00:32;2.70;;;1.63;;
315;SDS011;14128;48.686;9.738;2022-09-28T12:03:04;4.30;;;1.90;;
315;SDS011;14128;48.686;9.738;2022-09-28T12:05:38;1.50;;;1.37;;
315;SDS011;14128;48.686;9.738;2022-09-28T12:08:12;3.73;;;1.80;;
315;SDS011;14128;48.686;9.738;2022-09-28T12:10:43;4.43;;;2.70;;
315;SDS011;14128;48.686;9.738;2022-09-28T12:13:15;6.03;;;1.93;;
315;SDS011;14128;48.686;9.738;2022-09-28T12:15:47;6.30;;;2.00;;
315;SDS011;14128;48.686;9.738;2022-09-28T12:18:17;2.13;;;1.50;;
315;SDS011;14128;48.686;9.738;2022-09-28T12:20:50;6.23;;;2.23;;
315;SDS011;14128;48.686;9.738;2022-09-28T12:23:23;6.70;;;3.40;;
315;SDS011;14128;48.686;9.738;2022-09-28T12:25:56;3.53;;;2.30;;
315;SDS011;14128;48.686;9.738;2022-09-28T12:28:28;6.37;;;3.27;;
315;SDS011;14128;48.686;9.738;2022-09-28T12:31:04;6.83;;;3.00;;
315;SDS011;14128;48.686;9.738;2022-09-28T12:33:37;2.10;;;1.40;;
315;SDS011;14128;48.686;9.738;2022-09-28T12:36:06;5.27;;;2.60;;
315;SDS011;14128;48.686;9.738;2022-09-28T12:38:55;3.13;;;2.40;;
315;SDS011;14128;48.686;9.738;2022-09-28T12:41:33;7.43;;;2.50;;
315;SDS011;14128;48.686;9.738;2022-09-28T12:44:19;4.93;;;2.57;;
315;SDS011;14128;48.686;9.738;2022-09-28T12:47:03;3.40;;;1.80;;
315;SDS011;14128;48.686;9.738;2022-09-28T12:49:42;4.13;;;1.50;;
315;SDS011;14128;48.686;9.738;2022-09-28T12:52:24;4.90;;;1.97;;
315;SDS011;14128;48.686;9.738;2022-09-28T12:55:01;1.43;;;1.10;;
315;SDS011;14128;48.686;9.738;2022-09-28T12:57:40;2.57;;;1.53;;
315;SDS011;14128;48.686;9.738;2022-09-28T13:00:16;5.10;;;2.13;;
315;SDS011;14128;48.686;9.738;2022-09-28T13:06:01;4.93;;;3.20;;
315;SDS011;14128;48.686;9.738;2022-09-28T13:08:51;3.10;;;1.53;;
315;SDS011;14128;48.686;9.738;2022-09-28T13:11:32;6.00;;;2.57;;
315;SDS011;14128;48.686;9.738;2022-09-28T13:14:09;12.80;;;3.73;;
315;SDS011;14128;48.686;9.738;2022-09-28T13:16:53;4.93;;;1.30;;
315;SDS011;14128;48.686;9.738;2022-09-28T13:19:26;4.87;;;1.53;;
315;SDS011;14128;48.686;9.738;2022-09-28T13:22:05;2.17;;;1.20;;
315;SDS011;14128;48.686;9.738;2022-09-28T13:24:42;1.63;;;1.20;;
315;SDS011;14128;48.686;9.738;2022-09-28T13:27:12;1.60;;;1.03;;
315;SDS011;14128;48.686;9.738;2022-09-28T13:29:43;3.90;;;1.30;;
315;SDS011;14128;48.686;9.738;2022-09-28T13:32:14;1.73;;;0.77;;
315;SDS011;14128;48.686;9.738;2022-09-28T13:34:42;4.60;;;1.30;;
315;SDS011;14128;48.686;9.738;2022-09-28T13:37:19;1.20;;;1.00;;
315;SDS011;14128;48.686;9.738;2022-09-28T13:39:49;3.07;;;0.97;;
315;SDS011;14128;48.686;9.738;2022-09-28T13:45:33;3.03;;;1.10;;
315;SDS011;14128;48.686;9.738;2022-09-28T13:48:16;4.67;;;1.30;;
315;SDS011;14128;48.686;9.738;2022-09-28T13:53:36;2.07;;;1.27;;
315;SDS011;14128;48.686;9.738;2022-09-28T13:56:41;2.37;;;1.83;;
315;SDS011;14128;48.686;9.738;2022-09-28T13:59:14;1.70;;;1.00;;
315;SDS011;14128;48.686;9.738;2022-09-28T14:01:49;2.63;;;0.83;;
315;SDS011;14128;48.686;9.738;2022-09-28T14:04:23;1.90;;;1.17;;
315;SDS011;14128;48.686;9.738;2022-09-28T14:07:14;2.10;;;0.93;;
315;SDS011;14128;48.686;9.738;2022-09-28T14:09:45;5.77;;;1.00;;
315;SDS011;14128;48.686;9.738;2022-09-28T14:12:26;4.93;;;1.07;;
315;SDS011;14128;48.686;9.738;2022-09-28T14:15:43;7.20;;;1.37;;
315;SDS011;14128;48.686;9.738;2022-09-28T14:18:10;9.33;;;1.60;;
315;SDS011;14128;48.686;9.738;2022-09-28T14:20:57;2.03;;;1.00;;
315;SDS011;14128;48.686;9.738;2022-09-28T14:23:52;6.57;;;3.10;;
315;SDS011;14128;48.686;9.738;2022-09-28T14:26:41;2.50;;;1.20;;
315;SDS011;14128;48.686;9.738;2022-09-28T14:29:23;3.33;;;1.27;;
315;SDS011;14128;48.686;9.738;2022-09-28T14:31:53;2.17;;;1.13;;
315;SDS011;14128;48.686;9.738;2022-09-28T14:34:24;4.73;;;1.07;;
315;SDS011;14128;48.686;9.738;2022-09-28T14:36:56;8.93;;;2.63;;
315;SDS011;14128;48.686;9.738;2022-09-28T14:39:42;3.70;;;1.23;;
315;SDS011;14128;48.686;9.738;2022-09-28T14:42:28;3.80;;;0.93;;
315;SDS011;14128;48.686;9.738;2022-09-28T14:48:10;4.30;;;0.80;;
315;SDS011;14128;48.686;9.738;2022-09-28T14:50:44;2.73;;;1.00;;
315;SDS011;14128;48.686;9.738;2022-09-28T14:53:14;4.67;;;1.93;;
315;SDS011;14128;48.686;9.738;2022-09-28T14:55:45;5.43;;;1.33;;
315;SDS011;14128;48.686;9.738;2022-09-28T14:58:18;1.40;;;0.93;;
315;SDS011;14128;48.686;9.738;2022-09-28T15:00:48;3.00;;;0.97;;
315;SDS011;14128;48.686;9.738;2022-09-28T15:03:19;4.10;;;1.40;;
315;SDS011;14128;48.686;9.738;2022-09-28T15:05:48;1.10;;;0.90;;
315;SDS011;14128;48.686;9.738;2022-09-28T15:08:16;1.80;;;0.83;;
315;SDS011;14128;48.686;9.738;2022-09-28T15:10:45;4.93;;;1.07;;
315;SDS011;14128;48.686;9.738;2022-09-28T15:13:18;1.93;;;0.90;;
315;SDS011;14128;48.686;9.738;2022-09-28T15:15:50;3.97;;;0.83;;
315;SDS011;14128;48.686;9.738;2022-09-28T15:18:24;7.70;;;1.73;;
315;SDS011;14128;48.686;9.738;2022-09-28T15:21:06;2.57;;;1.27;;
315;SDS011;14128;48.686;9.738;2022-09-28T15:23:35;3.20;;;1.33;;
315;SDS011;14128;48.686;9.738;2022-09-28T15:26:04;2.70;;;1.20;;
315;SDS011;14128;48.686;9.738;2022-09-28T15:28:33;4.30;;;1.67;;
315;SDS011;14128;48.686;9.738;2022-09-28T15:31:03;1.27;;;0.73;;
315;SDS011;14128;48.686;9.738;2022-09-28T15:33:31;7.47;;;1.50;;
315;SDS011;14128;48.686;9.738;2022-09-28T15:36:17;1.90;;;0.93;;
315;SDS011;14128;48.686;9.738;2022-09-28T15:38:52;3.27;;;1.37;;
315;SDS011;14128;48.686;9.738;2022-09-28T15:41:22;3.67;;;3.23;;
315;SDS011;14128;48.686;9.738;2022-09-28T15:44:06;3.13;;;1.73;;
315;SDS011;14128;48.686;9.738;2022-09-28T15:46:47;4.93;;;2.40;;
315;SDS011;14128;48.686;9.738;2022-09-28T15:49:21;6.33;;;4.97;;
315;SDS011;14128;48.686;9.738;2022-09-28T15:51:50;3.00;;;1.90;;
315;SDS011;14128;48.686;9.738;2022-09-28T15:54:22;5.13;;;2.70;;
315;SDS011;14128;48.686;9.738;2022-09-28T15:56:53;2.40;;;1.23;;
315;SDS011;14128;48.686;9.738;2022-09-28T15:59:28;4.50;;;1.17;;
315;SDS011;14128;48.686;9.738;2022-09-28T16:02:00;3.83;;;1.20;;
315;SDS011;14128;48.686;9.738;2022-09-28T16:04:33;4.63;;;1.60;;
315;SDS011;14128;48.686;9.738;2022-09-28T16:07:18;2.47;;;1.73;;
315;SDS011;14128;48.686;9.738;2022-09-28T16:09:56;3.07;;;1.50;;
315;SDS011;14128;48.686;9.738;2022-09-28T16:12:26;1.43;;;0.80;;